Terminal Aerodrome Forecast
Issued by NWS Memphis, TN

Home | Current Version | Previous Version | Text Only | Print | Product List | Glossary On
Versions: 1 2 3 4 5 6 7 8 9 10 11 12 13 14 15 16 17
000
FTUS44 KMEG 252321
TAFJBR
TAF
KJBR 252321Z 2600/2624 00000KT P6SM FEW150 SCT250
     FM261300 16008KT P6SM SCT060 BKN150
     FM261600 18013G20KT P6SM VCSH BKN060 OVC150
     FM262200 26010KT P6SM SCT060 BKN150=

USA.gov is the U.S. government's official web portal to all federal, state and local government web resources and services.